Monday, October 15, 2018, 5:00 AM EDT
Back to Local

KHWV, Shirley Brookhaven Airport

Location: Shirley, NY, United States Lat: 40.817
Local Time: 5:00 AM EDT ( 9:00 GMT) Lon: -72.867
Time Zone: US/Eastern Elev: 82 ft

Show me the last for .
Show Coded

Time T Td Feel RH Dir Speed Gust Alt SLP Vis Weather Sky Remarks
2018-10-15 03:56 49 46 - 89 - Calm - 30.20 30.20 10 OVC045 None
2018-10-15 02:56 47 44 - 89 - Calm - 30.21 30.21 10 BKN100 None
2018-10-15 01:56 47 44 - 89 - Calm - 30.22 30.22 10 CLR 6-hr Min Temp (2am): 46.9°F
6-hr Max Temp (2am): 53.1°F
2018-10-15 00:56 51 44 - 76 - Calm - 30.23 30.23 10 FEW080 24-hr Min Temp (1am): 39.0°F
24-hr Max Temp (1am): 59.0°F
2018-10-14 23:56 53 44 - 71 240° 3 - 30.23 30.23 10 OVC080 None
2018-10-14 22:56 53 44 - 71 240° 3 - 30.24 30.24 10 OVC080 None
2018-10-14 21:56 50 46 - 86 - Calm - 30.23 30.23 10 SCT075 None
2018-10-14 20:56 51 46 - 82 - Calm - 30.23 30.23 10 SCT090 SCT110 None
2018-10-14 19:56 51 46 - 82 - Calm - 30.22 30.22 10 BKN120 6-hr Precip Total (8pm): 0.00"
6-hr Min Temp (8pm): 51.1°F
6-hr Max Temp (8pm): 59.0°F
2018-10-14 18:56 52 46 - 80 - Calm - 30.22 30.21 10 CLR None
2018-10-14 17:56 56 42 - 59 230° 5 - 30.21 30.21 10 CLR None
2018-10-14 16:56 57 41 - 54 250° 6 - 30.21 30.21 10 CLR 1-hr Precip Total: Trace
6-hr Precip Total (5pm): 0.00"
2018-10-14 15:56 58 39 - 49 240° 8 - 30.21 30.21 10 -RA CLR 1-hr Precip Total: Trace
2018-10-14 14:56 58 39 - 49 240° 5 - 30.22 30.22 10 CLR 1-hr Precip Total: Trace
2018-10-14 13:56 58 38 - 47 270° 7 - 30.24 30.24 10 -RA CLR 1-hr Precip Total: Trace
6-hr Precip Total (2pm): 0.00"
6-hr Min Temp (2pm): 44.1°F
6-hr Max Temp (2pm): 59.0°F
2018-10-14 12:56 58 39 - 49 250° 7 - 30.24 30.24 10 CLR 1-hr Precip Total: Trace
2018-10-14 11:56 57 41 - 54 270° 7 - 30.26 30.26 10 SCT034 SCT043 1-hr Precip Total: Trace
2018-10-14 10:56 55 42 - 61 300° 5 - 30.25 30.24 10 CLR None
2018-10-14 09:56 51 42 - 71 240° 3 - 30.23 30.23 10 CLR None
2018-10-14 08:56 47 42 46 83 300° 3 - 30.22 30.22 10 CLR None
2018-10-14 07:56 44 42 - 92 - Calm - 30.21 30.21 10 CLR 24-hr Precip Total (8am): 0.09"
6-hr Min Temp (8am): 39.0°F
6-hr Max Temp (8am): 44.1°F
2018-10-14 06:56 42 39 - 88 - Calm - 30.20 30.20 10 CLR None
2018-10-14 05:56 40 38 - 92 - Calm - 30.19 30.19 10 CLR None

Support USWX by starting your Amazon purchase here.